createdAt,value
2022-09-26T00:01:43.167Z,20.30
2022-09-26T00:04:22.892Z,20.40
2022-09-26T00:06:53.970Z,20.30
2022-09-26T00:09:24.103Z,20.30
2022-09-26T00:11:54.377Z,20.30
2022-09-26T00:14:25.465Z,20.30
2022-09-26T00:16:53.933Z,20.30
2022-09-26T00:19:22.818Z,20.40
2022-09-26T00:21:51.075Z,20.40
2022-09-26T00:24:19.199Z,20.40
2022-09-26T00:26:47.542Z,20.40
2022-09-26T00:29:16.023Z,20.50
2022-09-26T00:31:46.488Z,20.50
2022-09-26T00:34:17.367Z,20.50
2022-09-26T00:36:48.731Z,20.50
2022-09-26T00:39:17.738Z,20.60
2022-09-26T00:41:46.014Z,20.60
2022-09-26T00:44:39.102Z,20.50
2022-09-26T00:47:15.881Z,20.50
2022-09-26T00:49:46.165Z,20.50
2022-09-26T00:52:27.495Z,20.50
2022-09-26T00:54:58.948Z,20.50
2022-09-26T00:57:36.116Z,20.50
2022-09-26T01:00:10.130Z,20.50
2022-09-26T01:02:38.425Z,20.50
2022-09-26T01:05:07.843Z,20.50
2022-09-26T01:07:36.783Z,20.40
2022-09-26T01:10:06.528Z,20.50
2022-09-26T01:12:38.807Z,20.50
2022-09-26T01:15:09.538Z,20.50
2022-09-26T01:17:44.481Z,20.50
2022-09-26T01:20:24.392Z,20.50
2022-09-26T01:23:17.842Z,20.50
2022-09-26T01:26:22.534Z,20.50
2022-09-26T01:29:09.098Z,20.60
2022-09-26T01:32:27.062Z,20.60
2022-09-26T01:35:19.849Z,20.60
2022-09-26T01:38:00.257Z,20.60
2022-09-26T01:40:33.258Z,20.60
2022-09-26T01:43:21.798Z,20.60
2022-09-26T01:46:10.897Z,20.60
2022-09-26T01:48:48.759Z,20.70
2022-09-26T01:51:23.234Z,20.70
2022-09-26T01:53:56.646Z,20.70
2022-09-26T01:56:28.843Z,20.70
2022-09-26T01:59:15.499Z,20.70
2022-09-26T02:01:51.272Z,20.70
2022-09-26T02:04:25.411Z,20.70
2022-09-26T02:06:56.285Z,20.70
2022-09-26T02:09:40.421Z,20.80
2022-09-26T02:12:15.221Z,20.80
2022-09-26T02:14:46.196Z,20.80
2022-09-26T02:17:23.513Z,20.80
2022-09-26T02:20:06.516Z,20.80
2022-09-26T02:22:35.706Z,20.80
2022-09-26T02:25:04.887Z,20.80
2022-09-26T02:27:33.400Z,20.90
2022-09-26T02:30:02.178Z,20.90
2022-09-26T02:32:32.876Z,20.90
2022-09-26T02:35:22.931Z,20.90
2022-09-26T02:37:53.134Z,20.90
2022-09-26T02:40:31.059Z,21.00
2022-09-26T02:43:18.147Z,20.90
2022-09-26T02:46:23.899Z,20.90
2022-09-26T02:49:15.771Z,20.90
2022-09-26T02:52:03.126Z,20.90
2022-09-26T02:54:51.609Z,20.90
2022-09-26T02:58:19.600Z,20.90
2022-09-26T03:00:57.357Z,20.90
2022-09-26T03:03:40.992Z,20.90
2022-09-26T03:06:15.326Z,20.90
2022-09-26T03:08:48.231Z,20.90
2022-09-26T03:11:26.176Z,20.90
2022-09-26T03:13:56.741Z,20.90
2022-09-26T03:16:31.447Z,21.00
2022-09-26T03:19:17.706Z,21.00
2022-09-26T03:21:45.861Z,21.00
2022-09-26T03:24:14.981Z,21.00
2022-09-26T03:26:44.361Z,21.00
2022-09-26T03:29:13.236Z,21.00
2022-09-26T03:31:42.757Z,20.90
2022-09-26T03:34:11.457Z,20.90
2022-09-26T03:36:40.466Z,20.90
2022-09-26T03:39:10.745Z,20.90
2022-09-26T03:41:47.860Z,20.80
2022-09-26T03:44:22.033Z,20.80
2022-09-26T03:47:07.840Z,20.80
2022-09-26T03:49:41.533Z,20.80
2022-09-26T03:52:12.128Z,20.80
2022-09-26T03:54:41.202Z,20.70
2022-09-26T03:57:11.047Z,20.80
2022-09-26T03:59:44.085Z,20.80
2022-09-26T04:02:14.279Z,20.80
2022-09-26T04:04:46.657Z,20.80
2022-09-26T04:07:16.422Z,20.80
2022-09-26T04:09:44.696Z,20.90
2022-09-26T04:12:13.009Z,20.90
2022-09-26T04:14:44.841Z,20.90
2022-09-26T04:17:13.961Z,20.90
2022-09-26T04:19:48.117Z,20.90
2022-09-26T04:22:16.414Z,20.90
2022-09-26T04:24:45.531Z,20.90
2022-09-26T04:27:16.036Z,20.90
2022-09-26T04:29:46.522Z,20.90
2022-09-26T04:32:20.335Z,20.90
2022-09-26T04:35:07.766Z,20.90
2022-09-26T04:37:37.726Z,20.90
2022-09-26T04:40:06.491Z,20.90
2022-09-26T04:42:37.391Z,20.90
2022-09-26T04:45:07.194Z,20.90
2022-09-26T04:47:35.307Z,20.90
2022-09-26T04:50:26.691Z,20.90
2022-09-26T04:53:09.587Z,20.90
2022-09-26T04:55:47.265Z,20.90
2022-09-26T04:58:17.229Z,20.90
2022-09-26T05:00:48.143Z,20.90
2022-09-26T05:03:24.146Z,20.90
2022-09-26T05:05:52.292Z,20.90
2022-09-26T05:08:21.310Z,20.90
2022-09-26T05:10:56.441Z,21.00
2022-09-26T05:13:25.747Z,21.00
2022-09-26T05:15:55.850Z,21.00
2022-09-26T05:18:25.290Z,21.00
2022-09-26T05:20:54.216Z,21.00
2022-09-26T05:23:44.993Z,21.00
2022-09-26T05:26:20.770Z,21.00
2022-09-26T05:28:54.119Z,21.00
2022-09-26T05:31:29.454Z,21.10
2022-09-26T05:33:57.802Z,21.10
2022-09-26T05:36:26.661Z,21.20
2022-09-26T05:38:54.948Z,21.20
2022-09-26T05:41:23.285Z,21.10
2022-09-26T05:43:51.964Z,21.20
2022-09-26T05:46:20.228Z,21.20
2022-09-26T05:48:56.333Z,21.30
2022-09-26T05:51:27.554Z,21.30
2022-09-26T05:53:56.021Z,21.40
2022-09-26T05:56:26.724Z,21.50
2022-09-26T05:59:15.137Z,21.50
2022-09-26T06:02:01.634Z,21.60
2022-09-26T06:05:08.228Z,21.60
2022-09-26T06:08:04.984Z,21.60
2022-09-26T06:10:37.401Z,21.60
2022-09-26T06:13:07.254Z,21.70
2022-09-26T06:15:43.758Z,21.70
2022-09-26T06:18:12.036Z,21.80
2022-09-26T06:20:40.267Z,21.90
2022-09-26T06:23:08.607Z,21.90
2022-09-26T06:25:38.999Z,21.90
2022-09-26T06:28:08.350Z,21.90
2022-09-26T06:30:37.915Z,21.90
2022-09-26T06:33:14.206Z,21.90
2022-09-26T06:36:05.946Z,21.90
2022-09-26T06:38:37.087Z,21.80
2022-09-26T06:41:09.199Z,21.80
2022-09-26T06:43:37.529Z,21.90
2022-09-26T06:46:25.564Z,22.00
2022-09-26T06:48:58.685Z,22.20
2022-09-26T06:51:47.433Z,22.30
2022-09-26T06:54:15.769Z,22.60
2022-09-26T06:56:43.618Z,22.80
2022-09-26T06:59:11.533Z,22.90
2022-09-26T07:01:48.274Z,23.00
2022-09-26T07:04:39.124Z,23.00
2022-09-26T07:07:17.122Z,23.00
2022-09-26T07:09:47.521Z,22.80
2022-09-26T07:12:38.201Z,22.70
2022-09-26T07:15:06.912Z,22.70
2022-09-26T07:17:34.910Z,22.60
2022-09-26T07:20:11.824Z,22.70
2022-09-26T07:22:57.839Z,22.70
2022-09-26T07:25:26.769Z,22.60
2022-09-26T07:27:55.260Z,22.60
2022-09-26T07:30:34.202Z,22.70
2022-09-26T07:33:11.356Z,22.70
2022-09-26T07:35:52.796Z,22.70
2022-09-26T07:38:22.622Z,22.80
2022-09-26T07:40:55.286Z,22.70
2022-09-26T07:43:35.881Z,22.70
2022-09-26T07:46:31.707Z,22.70
2022-09-26T07:49:21.927Z,22.70
2022-09-26T07:52:09.835Z,22.60
2022-09-26T07:54:49.796Z,22.60
2022-09-26T07:57:26.766Z,22.60
2022-09-26T08:00:32.152Z,22.60
2022-09-26T08:03:21.328Z,22.60
2022-09-26T08:05:50.048Z,22.60
2022-09-26T08:08:18.035Z,22.60
2022-09-26T08:11:04.295Z,22.60
2022-09-26T08:14:04.749Z,22.70
2022-09-26T08:16:44.042Z,22.80
2022-09-26T08:19:17.653Z,22.80
2022-09-26T08:21:47.010Z,22.90
2022-09-26T08:24:15.062Z,22.90
2022-09-26T08:27:03.344Z,23.00
2022-09-26T08:29:35.421Z,23.10
2022-09-26T08:32:05.818Z,23.10
2022-09-26T08:34:35.785Z,23.20
2022-09-26T08:37:32.168Z,23.20
2022-09-26T08:40:56.174Z,23.20
2022-09-26T08:44:08.059Z,23.20
2022-09-26T08:47:07.136Z,23.20
2022-09-26T08:50:06.034Z,23.20
2022-09-26T08:52:42.407Z,23.30
2022-09-26T08:55:22.373Z,23.20
2022-09-26T08:57:58.330Z,23.20
2022-09-26T09:00:32.031Z,23.20
2022-09-26T09:03:11.615Z,23.10
2022-09-26T09:06:15.266Z,23.00
2022-09-26T09:08:57.688Z,22.90
2022-09-26T09:11:44.014Z,22.70
2022-09-26T09:15:23.949Z,22.50
2022-09-26T09:18:45.199Z,22.40
2022-09-26T09:21:42.027Z,22.20
2022-09-26T09:24:51.257Z,22.30
2022-09-26T09:27:54.996Z,22.40
2022-09-26T09:30:50.855Z,22.50
2022-09-26T09:33:50.856Z,22.40
2022-09-26T09:37:04.493Z,22.50
2022-09-26T09:39:57.959Z,22.60
2022-09-26T09:43:00.578Z,22.60
2022-09-26T09:46:01.851Z,22.70
2022-09-26T09:48:30.941Z,22.70
2022-09-26T09:51:39.590Z,22.80
2022-09-26T09:54:24.760Z,22.70
2022-09-26T09:57:24.289Z,22.70
2022-09-26T10:00:02.293Z,22.70
2022-09-26T10:03:04.054Z,22.70
2022-09-26T10:05:45.750Z,22.70
2022-09-26T10:08:43.203Z,22.80
2022-09-26T10:11:42.501Z,22.80
2022-09-26T10:15:03.454Z,22.80
2022-09-26T10:18:24.239Z,22.80
2022-09-26T10:21:16.554Z,22.80
2022-09-26T10:23:49.441Z,22.70
2022-09-26T10:26:38.194Z,22.60
2022-09-26T10:29:37.216Z,22.40
2022-09-26T10:32:07.095Z,22.10
2022-09-26T10:34:38.812Z,22.00
2022-09-26T10:37:30.304Z,21.80
2022-09-26T10:40:47.302Z,21.60
2022-09-26T10:43:32.849Z,21.40
2022-09-26T10:46:21.463Z,21.20
2022-09-26T10:49:14.327Z,21.10
2022-09-26T10:52:26.499Z,21.20
2022-09-26T10:55:04.572Z,21.10
2022-09-26T10:57:54.358Z,21.00
2022-09-26T11:00:38.613Z,21.10
2022-09-26T11:03:16.982Z,21.20
2022-09-26T11:06:05.401Z,21.30
2022-09-26T11:08:38.803Z,21.60
2022-09-26T11:11:39.732Z,21.80
2022-09-26T11:14:11.415Z,22.00
2022-09-26T11:16:54.067Z,22.30
2022-09-26T11:19:42.965Z,22.50
2022-09-26T11:22:22.669Z,22.70
2022-09-26T11:25:13.651Z,23.10
2022-09-26T11:27:55.830Z,23.50
2022-09-26T11:30:46.606Z,24.00
2022-09-26T11:33:19.360Z,24.50
2022-09-26T11:36:42.269Z,24.90
2022-09-26T11:39:13.103Z,24.90
2022-09-26T11:42:03.472Z,25.10
2022-09-26T11:45:00.112Z,24.70
2022-09-26T11:47:50.597Z,24.40
2022-09-26T11:50:50.063Z,24.20
2022-09-26T11:53:44.689Z,23.80
2022-09-26T11:56:32.439Z,23.70
2022-09-26T11:59:25.673Z,23.40
2022-09-26T12:02:35.808Z,23.10
2022-09-26T12:05:27.547Z,23.00
2022-09-26T12:07:59.751Z,22.90
2022-09-26T12:10:49.342Z,22.80
2022-09-26T12:13:42.032Z,22.70
2022-09-26T12:16:15.042Z,22.60
2022-09-26T12:18:57.152Z,22.40
2022-09-26T12:22:06.722Z,22.20
2022-09-26T12:24:56.502Z,22.10
2022-09-26T12:27:33.339Z,22.30
2022-09-26T12:30:17.972Z,22.40
2022-09-26T12:32:47.538Z,22.40
2022-09-26T12:35:31.803Z,22.50
2022-09-26T12:38:05.882Z,22.50
2022-09-26T12:40:37.610Z,22.50
2022-09-26T12:43:21.690Z,22.50
2022-09-26T12:46:01.486Z,22.60
2022-09-26T12:48:49.650Z,22.60
2022-09-26T12:51:47.558Z,22.50
2022-09-26T12:54:48.973Z,22.50
2022-09-26T12:57:44.482Z,22.40
2022-09-26T13:00:23.291Z,22.40
2022-09-26T13:03:38.972Z,22.50
2022-09-26T13:09:39.862Z,23.50
2022-09-26T13:12:32.127Z,24.60
2022-09-26T13:15:21.223Z,25.60
2022-09-26T13:17:55.103Z,27.40
2022-09-26T13:20:30.125Z,28.50
2022-09-26T13:23:11.480Z,28.40
2022-09-26T13:25:52.911Z,27.40
2022-09-26T13:28:34.293Z,26.40
2022-09-26T13:31:16.804Z,25.60
2022-09-26T13:33:57.279Z,25.10
2022-09-26T13:36:26.773Z,24.70
2022-09-26T13:39:08.879Z,24.30
2022-09-26T13:42:04.073Z,24.10
2022-09-26T13:44:53.979Z,24.00
2022-09-26T13:47:30.498Z,23.80
2022-09-26T13:50:01.834Z,23.60
2022-09-26T13:52:40.563Z,23.30
2022-09-26T13:55:14.349Z,23.10
2022-09-26T13:57:50.294Z,22.90
2022-09-26T14:00:30.713Z,22.60
2022-09-26T14:03:14.079Z,22.60
2022-09-26T14:05:42.170Z,22.60
2022-09-26T14:08:50.278Z,22.60
2022-09-26T14:11:28.139Z,22.70
2022-09-26T14:14:21.937Z,22.80
2022-09-26T14:17:02.155Z,22.90
2022-09-26T14:19:54.884Z,23.10
2022-09-26T14:22:26.283Z,23.30
2022-09-26T14:24:57.300Z,23.20
2022-09-26T14:27:29.127Z,23.20
2022-09-26T14:30:01.258Z,23.20
2022-09-26T14:32:36.444Z,23.20
2022-09-26T14:35:20.398Z,23.20
2022-09-26T14:37:51.107Z,23.20
2022-09-26T14:40:34.251Z,23.10
2022-09-26T14:43:24.525Z,23.20
2022-09-26T14:46:04.692Z,23.20
2022-09-26T14:48:41.470Z,23.00
2022-09-26T14:51:12.691Z,22.90
2022-09-26T14:53:53.900Z,22.80
2022-09-26T14:56:27.795Z,22.70
2022-09-26T14:59:34.213Z,22.80
2022-09-26T15:02:14.835Z,22.80
2022-09-26T15:04:45.278Z,22.80
2022-09-26T15:07:22.388Z,22.70
2022-09-26T15:09:57.332Z,22.80
2022-09-26T15:12:40.137Z,22.80
2022-09-26T15:15:36.722Z,22.80
2022-09-26T15:18:41.918Z,22.80
2022-09-26T15:21:37.911Z,22.80
2022-09-26T15:24:24.497Z,22.80
2022-09-26T15:27:01.185Z,22.80
2022-09-26T15:29:29.401Z,22.70
2022-09-26T15:31:58.001Z,22.60
2022-09-26T15:34:37.539Z,22.60
2022-09-26T15:37:30.395Z,22.40
2022-09-26T15:40:11.332Z,22.30
2022-09-26T15:42:58.135Z,22.20
2022-09-26T15:45:33.796Z,22.20
2022-09-26T15:48:05.777Z,22.20
2022-09-26T15:50:42.754Z,22.20
2022-09-26T15:53:36.650Z,22.10
2022-09-26T15:56:19.414Z,22.10
2022-09-26T15:58:52.378Z,22.10
2022-09-26T16:01:27.031Z,22.10
2022-09-26T16:04:13.890Z,22.10
2022-09-26T16:07:09.439Z,22.20
2022-09-26T16:09:43.675Z,22.20
2022-09-26T16:12:22.927Z,22.20
2022-09-26T16:15:05.660Z,22.20
2022-09-26T16:17:43.471Z,22.20
2022-09-26T16:20:17.847Z,22.20
2022-09-26T16:22:52.382Z,22.20
2022-09-26T16:25:24.698Z,22.10
2022-09-26T16:28:13.780Z,22.10
2022-09-26T16:30:51.933Z,22.00
2022-09-26T16:33:34.436Z,22.00
2022-09-26T16:36:09.474Z,22.00
2022-09-26T16:38:38.291Z,21.90
2022-09-26T16:41:56.430Z,21.90
2022-09-26T16:44:30.298Z,21.80
2022-09-26T16:47:04.046Z,21.70
2022-09-26T16:49:40.514Z,21.70
2022-09-26T16:52:30.126Z,21.70
2022-09-26T16:55:00.805Z,21.60
2022-09-26T16:57:34.883Z,21.60
2022-09-26T17:00:49.991Z,21.60
2022-09-26T17:03:30.216Z,21.60
2022-09-26T17:05:59.759Z,21.60
2022-09-26T17:08:29.214Z,21.50
2022-09-26T17:11:02.386Z,21.50
2022-09-26T17:13:36.070Z,21.50
2022-09-26T17:16:04.435Z,21.40
2022-09-26T17:18:33.825Z,21.40
2022-09-26T17:21:03.851Z,21.30
2022-09-26T17:23:41.600Z,21.30
2022-09-26T17:26:20.372Z,21.20
2022-09-26T17:28:49.843Z,21.20
2022-09-26T17:31:21.995Z,21.10
2022-09-26T17:33:53.026Z,21.10
2022-09-26T17:36:32.387Z,21.10
2022-09-26T17:39:03.464Z,21.10
2022-09-26T17:41:35.014Z,21.00
2022-09-26T17:44:03.293Z,20.90
2022-09-26T17:46:31.493Z,20.90
2022-09-26T17:49:01.024Z,20.90
2022-09-26T17:51:29.816Z,20.90
2022-09-26T17:53:57.943Z,20.80
2022-09-26T17:56:26.983Z,20.80
2022-09-26T17:58:56.153Z,20.90
2022-09-26T18:01:28.309Z,20.90
2022-09-26T18:04:00.556Z,20.90
2022-09-26T18:06:33.198Z,20.90
2022-09-26T18:09:07.983Z,20.90
2022-09-26T18:11:37.815Z,20.90
2022-09-26T18:14:08.985Z,20.90
2022-09-26T18:16:37.301Z,20.90
2022-09-26T18:19:07.705Z,20.90
2022-09-26T18:21:36.475Z,20.90
2022-09-26T18:24:07.193Z,20.90
2022-09-26T18:26:50.925Z,20.90
2022-09-26T18:29:32.405Z,20.90
2022-09-26T18:32:01.738Z,20.90
2022-09-26T18:34:29.680Z,20.90
2022-09-26T18:37:00.402Z,20.90
2022-09-26T18:39:29.053Z,20.90
2022-09-26T18:42:04.049Z,20.90
2022-09-26T18:44:35.641Z,20.80
2022-09-26T18:47:08.263Z,20.80
2022-09-26T18:49:38.399Z,20.80
2022-09-26T18:52:15.728Z,20.80
2022-09-26T18:54:45.803Z,20.80
2022-09-26T18:57:32.616Z,20.70
2022-09-26T19:00:00.835Z,20.70
2022-09-26T19:02:34.361Z,20.70
2022-09-26T19:05:10.038Z,20.60
2022-09-26T19:07:38.215Z,20.60
2022-09-26T19:10:09.694Z,20.60
2022-09-26T19:12:40.139Z,20.60
2022-09-26T19:15:15.627Z,20.60
2022-09-26T19:17:43.921Z,20.60
2022-09-26T19:20:11.999Z,20.60
2022-09-26T19:22:40.433Z,20.60
2022-09-26T19:25:10.984Z,20.60
2022-09-26T19:27:53.131Z,20.70
2022-09-26T19:30:22.374Z,20.70
2022-09-26T19:32:53.222Z,20.70
2022-09-26T19:35:35.851Z,20.70
2022-09-26T19:38:09.736Z,20.60
2022-09-26T19:40:37.848Z,20.60
2022-09-26T19:43:06.169Z,20.60
2022-09-26T19:45:36.332Z,20.70
2022-09-26T19:48:06.318Z,20.70
2022-09-26T19:50:36.266Z,20.70
2022-09-26T19:53:15.211Z,20.70
2022-09-26T19:55:44.248Z,20.70
2022-09-26T19:58:15.645Z,20.70
2022-09-26T20:00:45.184Z,20.70
2022-09-26T20:03:22.192Z,20.70
2022-09-26T20:05:51.182Z,20.80
2022-09-26T20:08:28.116Z,20.70
2022-09-26T20:11:03.667Z,20.80
2022-09-26T20:13:51.822Z,20.80
2022-09-26T20:16:20.262Z,20.70
2022-09-26T20:18:53.079Z,20.70
2022-09-26T20:21:26.667Z,20.60
2022-09-26T20:23:56.955Z,20.60
2022-09-26T20:26:25.503Z,20.60
2022-09-26T20:28:53.598Z,20.50
2022-09-26T20:31:29.230Z,20.50
2022-09-26T20:34:00.471Z,20.50
2022-09-26T20:36:32.441Z,20.40
2022-09-26T20:39:04.449Z,20.40
2022-09-26T20:41:39.061Z,20.40
2022-09-26T20:44:16.193Z,20.30
2022-09-26T20:46:53.146Z,20.30
2022-09-26T20:49:35.018Z,20.30
2022-09-26T20:52:09.405Z,20.30
2022-09-26T20:54:37.853Z,20.20
2022-09-26T20:57:05.844Z,20.20
2022-09-26T20:59:36.409Z,20.20
2022-09-26T21:02:23.896Z,20.20
2022-09-26T21:04:52.559Z,20.20
2022-09-26T21:07:22.863Z,20.20
2022-09-26T21:09:50.910Z,20.20
2022-09-26T21:12:19.664Z,20.30
2022-09-26T21:14:47.945Z,20.30
2022-09-26T21:17:28.498Z,20.30
2022-09-26T21:19:57.010Z,20.40
2022-09-26T21:22:43.796Z,20.40
2022-09-26T21:25:17.147Z,20.40
2022-09-26T21:27:51.490Z,20.40
2022-09-26T21:30:20.833Z,20.50
2022-09-26T21:32:52.632Z,20.50
2022-09-26T21:35:21.720Z,20.50
2022-09-26T21:37:55.341Z,20.50
2022-09-26T21:40:26.598Z,20.50
2022-09-26T21:42:59.914Z,20.50
2022-09-26T21:45:28.054Z,20.50
2022-09-26T21:47:59.019Z,20.60
2022-09-26T21:50:29.201Z,20.60
2022-09-26T21:53:03.284Z,20.60
2022-09-26T21:55:39.206Z,20.50
2022-09-26T21:58:13.482Z,20.60
2022-09-26T22:00:41.736Z,20.50
2022-09-26T22:03:09.736Z,20.50
2022-09-26T22:05:37.973Z,20.50
2022-09-26T22:08:06.162Z,20.50
2022-09-26T22:10:34.452Z,20.40
2022-09-26T22:13:02.497Z,20.50
2022-09-26T22:15:30.542Z,20.40
2022-09-26T22:17:58.462Z,20.40
2022-09-26T22:20:26.921Z,20.40
2022-09-26T22:22:55.021Z,20.40
2022-09-26T22:25:22.991Z,20.40
2022-09-26T22:27:51.537Z,20.30
2022-09-26T22:30:19.986Z,20.30
2022-09-26T22:32:48.137Z,20.20
2022-09-26T22:35:16.140Z,20.10
2022-09-26T22:37:44.560Z,20.10
2022-09-26T22:40:12.919Z,20.00
2022-09-26T22:42:40.900Z,19.90
2022-09-26T22:45:09.752Z,19.90
2022-09-26T22:47:37.671Z,19.90
2022-09-26T22:50:05.982Z,19.90
2022-09-26T22:52:33.788Z,19.80
2022-09-26T22:55:03.515Z,19.80
2022-09-26T22:57:31.890Z,19.90
2022-09-26T23:00:02.258Z,19.90
2022-09-26T23:02:30.470Z,19.90
2022-09-26T23:04:59.285Z,19.90
2022-09-26T23:07:27.483Z,19.90
2022-09-26T23:09:55.710Z,19.90
2022-09-26T23:12:24.004Z,19.90
2022-09-26T23:14:52.576Z,19.90
2022-09-26T23:17:20.611Z,19.90
2022-09-26T23:19:48.518Z,19.90
2022-09-26T23:22:16.563Z,19.90
2022-09-26T23:24:44.475Z,19.80
2022-09-26T23:27:12.897Z,19.90
2022-09-26T23:29:41.907Z,19.80
2022-09-26T23:32:10.044Z,19.70
2022-09-26T23:34:38.058Z,19.70
2022-09-26T23:37:06.336Z,19.70
2022-09-26T23:39:34.305Z,19.60
2022-09-26T23:42:03.015Z,19.60
2022-09-26T23:44:32.396Z,19.60
2022-09-26T23:47:03.199Z,19.60
2022-09-26T23:49:31.468Z,19.50
2022-09-26T23:51:59.488Z,19.60
2022-09-26T23:54:27.708Z,19.50
2022-09-26T23:56:55.532Z,19.50
2022-09-26T23:59:23.616Z,19.50
